sensor_id;sensor_type;location;lat;lon;timestamp;P1;durP1;ratioP1;P2;durP2;ratioP2
3121;SDS011;1571;52.524;14.104;2023-08-24T00:01:39;3.47;;;3.17;;
3121;SDS011;1571;52.524;14.104;2023-08-24T00:04:08;5.90;;;4.77;;
3121;SDS011;1571;52.524;14.104;2023-08-24T00:06:37;4.30;;;3.83;;
3121;SDS011;1571;52.524;14.104;2023-08-24T00:09:05;4.03;;;3.53;;
3121;SDS011;1571;52.524;14.104;2023-08-24T00:11:33;9.63;;;4.60;;
3121;SDS011;1571;52.524;14.104;2023-08-24T00:14:02;4.80;;;3.60;;
3121;SDS011;1571;52.524;14.104;2023-08-24T00:16:31;3.70;;;3.40;;
3121;SDS011;1571;52.524;14.104;2023-08-24T00:19:00;4.97;;;4.57;;
3121;SDS011;1571;52.524;14.104;2023-08-24T00:21:28;5.67;;;3.50;;
3121;SDS011;1571;52.524;14.104;2023-08-24T00:23:56;4.60;;;3.83;;
3121;SDS011;1571;52.524;14.104;2023-08-24T00:26:24;4.90;;;4.10;;
3121;SDS011;1571;52.524;14.104;2023-08-24T00:28:52;7.00;;;5.10;;
3121;SDS011;1571;52.524;14.104;2023-08-24T00:31:21;5.93;;;5.20;;
3121;SDS011;1571;52.524;14.104;2023-08-24T00:33:50;4.50;;;4.20;;
3121;SDS011;1571;52.524;14.104;2023-08-24T00:36:18;4.73;;;3.47;;
3121;SDS011;1571;52.524;14.104;2023-08-24T00:38:47;4.50;;;4.10;;
3121;SDS011;1571;52.524;14.104;2023-08-24T00:41:18;4.27;;;4.00;;
3121;SDS011;1571;52.524;14.104;2023-08-24T00:43:48;4.27;;;3.97;;
3121;SDS011;1571;52.524;14.104;2023-08-24T00:46:17;4.20;;;3.80;;
3121;SDS011;1571;52.524;14.104;2023-08-24T00:48:46;4.40;;;4.10;;
3121;SDS011;1571;52.524;14.104;2023-08-24T00:51:17;4.27;;;3.87;;
3121;SDS011;1571;52.524;14.104;2023-08-24T00:53:45;4.33;;;3.97;;
3121;SDS011;1571;52.524;14.104;2023-08-24T00:56:14;3.40;;;3.07;;
3121;SDS011;1571;52.524;14.104;2023-08-24T00:58:43;5.20;;;3.60;;
3121;SDS011;1571;52.524;14.104;2023-08-24T01:01:13;4.43;;;4.10;;
3121;SDS011;1571;52.524;14.104;2023-08-24T01:03:42;7.17;;;4.50;;
3121;SDS011;1571;52.524;14.104;2023-08-24T01:06:10;6.90;;;3.67;;
3121;SDS011;1571;52.524;14.104;2023-08-24T01:08:40;4.10;;;3.60;;
3121;SDS011;1571;52.524;14.104;2023-08-24T01:11:08;3.90;;;3.70;;
3121;SDS011;1571;52.524;14.104;2023-08-24T01:13:45;5.27;;;4.20;;
3121;SDS011;1571;52.524;14.104;2023-08-24T01:16:24;4.07;;;3.77;;
3121;SDS011;1571;52.524;14.104;2023-08-24T01:18:55;9.13;;;5.33;;
3121;SDS011;1571;52.524;14.104;2023-08-24T01:21:26;4.10;;;3.80;;
3121;SDS011;1571;52.524;14.104;2023-08-24T01:24:00;4.20;;;3.90;;
3121;SDS011;1571;52.524;14.104;2023-08-24T01:26:38;5.50;;;4.40;;
3121;SDS011;1571;52.524;14.104;2023-08-24T01:29:08;4.50;;;4.10;;
3121;SDS011;1571;52.524;14.104;2023-08-24T01:31:37;4.87;;;4.47;;
3121;SDS011;1571;52.524;14.104;2023-08-24T01:34:06;4.50;;;4.10;;
3121;SDS011;1571;52.524;14.104;2023-08-24T01:36:34;6.67;;;4.90;;
3121;SDS011;1571;52.524;14.104;2023-08-24T01:39:05;8.70;;;4.50;;
3121;SDS011;1571;52.524;14.104;2023-08-24T01:41:40;7.53;;;4.50;;
3121;SDS011;1571;52.524;14.104;2023-08-24T01:44:14;9.27;;;5.43;;
3121;SDS011;1571;52.524;14.104;2023-08-24T01:46:46;7.97;;;3.87;;
3121;SDS011;1571;52.524;14.104;2023-08-24T01:49:17;3.70;;;3.50;;
3121;SDS011;1571;52.524;14.104;2023-08-24T01:51:47;4.77;;;4.47;;
3121;SDS011;1571;52.524;14.104;2023-08-24T01:54:16;5.10;;;4.70;;
3121;SDS011;1571;52.524;14.104;2023-08-24T01:56:46;5.33;;;4.83;;
3121;SDS011;1571;52.524;14.104;2023-08-24T01:59:14;4.73;;;4.33;;
3121;SDS011;1571;52.524;14.104;2023-08-24T02:01:42;4.87;;;4.47;;
3121;SDS011;1571;52.524;14.104;2023-08-24T02:04:11;5.47;;;5.10;;
3121;SDS011;1571;52.524;14.104;2023-08-24T02:06:39;4.40;;;4.00;;
3121;SDS011;1571;52.524;14.104;2023-08-24T02:09:07;7.60;;;4.97;;
3121;SDS011;1571;52.524;14.104;2023-08-24T02:11:35;5.23;;;4.60;;
3121;SDS011;1571;52.524;14.104;2023-08-24T02:14:05;5.60;;;5.20;;
3121;SDS011;1571;52.524;14.104;2023-08-24T02:16:37;6.43;;;5.50;;
3121;SDS011;1571;52.524;14.104;2023-08-24T02:19:05;6.33;;;4.53;;
3121;SDS011;1571;52.524;14.104;2023-08-24T02:21:35;5.53;;;4.00;;
3121;SDS011;1571;52.524;14.104;2023-08-24T02:24:04;4.80;;;4.50;;
3121;SDS011;1571;52.524;14.104;2023-08-24T02:26:33;5.90;;;5.40;;
3121;SDS011;1571;52.524;14.104;2023-08-24T02:29:01;6.50;;;6.00;;
3121;SDS011;1571;52.524;14.104;2023-08-24T02:31:31;6.40;;;5.90;;
3121;SDS011;1571;52.524;14.104;2023-08-24T02:33:59;7.00;;;6.40;;
3121;SDS011;1571;52.524;14.104;2023-08-24T02:36:27;5.80;;;5.30;;
3121;SDS011;1571;52.524;14.104;2023-08-24T02:38:58;5.90;;;5.40;;
3121;SDS011;1571;52.524;14.104;2023-08-24T02:41:27;6.43;;;5.80;;
3121;SDS011;1571;52.524;14.104;2023-08-24T02:43:56;5.80;;;5.40;;
3121;SDS011;1571;52.524;14.104;2023-08-24T02:46:24;6.10;;;5.20;;
3121;SDS011;1571;52.524;14.104;2023-08-24T02:48:53;5.37;;;4.97;;
3121;SDS011;1571;52.524;14.104;2023-08-24T02:51:22;5.50;;;5.10;;
3121;SDS011;1571;52.524;14.104;2023-08-24T02:53:51;7.23;;;5.70;;
3121;SDS011;1571;52.524;14.104;2023-08-24T02:56:20;6.37;;;5.70;;
3121;SDS011;1571;52.524;14.104;2023-08-24T02:58:48;5.80;;;5.30;;
3121;SDS011;1571;52.524;14.104;2023-08-24T03:01:16;5.63;;;5.13;;
3121;SDS011;1571;52.524;14.104;2023-08-24T03:03:45;5.70;;;5.10;;
3121;SDS011;1571;52.524;14.104;2023-08-24T03:06:14;10.43;;;5.10;;
3121;SDS011;1571;52.524;14.104;2023-08-24T03:08:43;6.23;;;5.50;;
3121;SDS011;1571;52.524;14.104;2023-08-24T03:11:11;5.73;;;5.23;;
3121;SDS011;1571;52.524;14.104;2023-08-24T03:13:39;5.77;;;5.37;;
3121;SDS011;1571;52.524;14.104;2023-08-24T03:16:08;5.03;;;4.73;;
3121;SDS011;1571;52.524;14.104;2023-08-24T03:18:37;6.97;;;5.47;;
3121;SDS011;1571;52.524;14.104;2023-08-24T03:21:06;6.50;;;6.00;;
3121;SDS011;1571;52.524;14.104;2023-08-24T03:23:35;6.20;;;5.80;;
3121;SDS011;1571;52.524;14.104;2023-08-24T03:26:06;7.00;;;5.90;;
3121;SDS011;1571;52.524;14.104;2023-08-24T03:28:34;6.27;;;5.73;;
3121;SDS011;1571;52.524;14.104;2023-08-24T03:31:02;7.23;;;6.00;;
3121;SDS011;1571;52.524;14.104;2023-08-24T03:33:31;6.10;;;5.50;;
3121;SDS011;1571;52.524;14.104;2023-08-24T03:36:00;6.67;;;6.27;;
3121;SDS011;1571;52.524;14.104;2023-08-24T03:38:30;6.13;;;5.63;;
3121;SDS011;1571;52.524;14.104;2023-08-24T03:41:02;6.37;;;5.87;;
3121;SDS011;1571;52.524;14.104;2023-08-24T03:43:33;7.13;;;6.57;;
3121;SDS011;1571;52.524;14.104;2023-08-24T03:46:04;6.43;;;5.80;;
3121;SDS011;1571;52.524;14.104;2023-08-24T03:48:33;5.97;;;5.57;;
3121;SDS011;1571;52.524;14.104;2023-08-24T03:51:01;6.20;;;5.67;;
3121;SDS011;1571;52.524;14.104;2023-08-24T03:53:29;10.70;;;6.83;;
3121;SDS011;1571;52.524;14.104;2023-08-24T03:55:59;6.43;;;5.90;;
3121;SDS011;1571;52.524;14.104;2023-08-24T03:58:28;8.13;;;6.90;;
3121;SDS011;1571;52.524;14.104;2023-08-24T04:00:58;7.47;;;6.83;;
3121;SDS011;1571;52.524;14.104;2023-08-24T04:03:28;7.97;;;7.37;;
3121;SDS011;1571;52.524;14.104;2023-08-24T04:05:56;12.30;;;7.93;;
3121;SDS011;1571;52.524;14.104;2023-08-24T04:08:24;8.50;;;7.80;;
3121;SDS011;1571;52.524;14.104;2023-08-24T04:10:53;8.17;;;7.53;;
3121;SDS011;1571;52.524;14.104;2023-08-24T04:13:23;8.67;;;8.00;;
3121;SDS011;1571;52.524;14.104;2023-08-24T04:15:53;7.87;;;7.23;;
3121;SDS011;1571;52.524;14.104;2023-08-24T04:18:21;8.30;;;7.60;;
3121;SDS011;1571;52.524;14.104;2023-08-24T04:20:51;7.37;;;6.67;;
3121;SDS011;1571;52.524;14.104;2023-08-24T04:23:23;8.07;;;7.03;;
3121;SDS011;1571;52.524;14.104;2023-08-24T04:25:52;8.27;;;7.67;;
3121;SDS011;1571;52.524;14.104;2023-08-24T04:28:20;7.20;;;6.70;;
3121;SDS011;1571;52.524;14.104;2023-08-24T04:30:49;7.13;;;6.63;;
3121;SDS011;1571;52.524;14.104;2023-08-24T04:33:20;7.73;;;7.17;;
3121;SDS011;1571;52.524;14.104;2023-08-24T04:35:48;7.77;;;7.13;;
3121;SDS011;1571;52.524;14.104;2023-08-24T04:38:17;8.47;;;7.63;;
3121;SDS011;1571;52.524;14.104;2023-08-24T04:40:48;8.63;;;7.93;;
3121;SDS011;1571;52.524;14.104;2023-08-24T04:43:17;8.57;;;7.80;;
3121;SDS011;1571;52.524;14.104;2023-08-24T04:45:48;8.27;;;7.40;;
3121;SDS011;1571;52.524;14.104;2023-08-24T04:48:16;8.83;;;8.13;;
3121;SDS011;1571;52.524;14.104;2023-08-24T04:50:46;8.00;;;7.20;;
3121;SDS011;1571;52.524;14.104;2023-08-24T04:53:16;10.70;;;7.80;;
3121;SDS011;1571;52.524;14.104;2023-08-24T04:55:45;9.13;;;7.80;;
3121;SDS011;1571;52.524;14.104;2023-08-24T04:58:14;7.80;;;7.07;;
3121;SDS011;1571;52.524;14.104;2023-08-24T05:00:42;9.53;;;7.50;;
3121;SDS011;1571;52.524;14.104;2023-08-24T05:03:11;7.33;;;6.83;;
3121;SDS011;1571;52.524;14.104;2023-08-24T05:05:40;7.80;;;7.10;;
3121;SDS011;1571;52.524;14.104;2023-08-24T05:08:10;7.90;;;7.30;;
3121;SDS011;1571;52.524;14.104;2023-08-24T05:10:39;7.10;;;6.50;;
3121;SDS011;1571;52.524;14.104;2023-08-24T05:13:07;8.47;;;6.50;;
3121;SDS011;1571;52.524;14.104;2023-08-24T05:15:36;6.70;;;6.10;;
3121;SDS011;1571;52.524;14.104;2023-08-24T05:18:04;6.37;;;5.87;;
3121;SDS011;1571;52.524;14.104;2023-08-24T05:20:32;7.23;;;6.70;;
3121;SDS011;1571;52.524;14.104;2023-08-24T05:23:00;7.47;;;6.23;;
3121;SDS011;1571;52.524;14.104;2023-08-24T05:25:30;6.47;;;5.83;;
3121;SDS011;1571;52.524;14.104;2023-08-24T05:27:58;9.03;;;5.90;;
3121;SDS011;1571;52.524;14.104;2023-08-24T05:30:27;6.53;;;5.87;;
3121;SDS011;1571;52.524;14.104;2023-08-24T05:32:56;6.73;;;6.10;;
3121;SDS011;1571;52.524;14.104;2023-08-24T05:35:24;6.87;;;6.17;;
3121;SDS011;1571;52.524;14.104;2023-08-24T05:37:54;6.13;;;5.53;;
3121;SDS011;1571;52.524;14.104;2023-08-24T05:40:22;6.80;;;6.13;;
3121;SDS011;1571;52.524;14.104;2023-08-24T05:42:52;7.57;;;6.13;;
3121;SDS011;1571;52.524;14.104;2023-08-24T05:45:20;6.20;;;5.37;;
3121;SDS011;1571;52.524;14.104;2023-08-24T05:47:52;5.87;;;5.43;;
3121;SDS011;1571;52.524;14.104;2023-08-24T05:50:21;11.30;;;6.40;;
3121;SDS011;1571;52.524;14.104;2023-08-24T05:52:49;6.10;;;5.40;;
3121;SDS011;1571;52.524;14.104;2023-08-24T05:55:17;6.13;;;5.53;;
3121;SDS011;1571;52.524;14.104;2023-08-24T05:57:46;6.23;;;5.50;;
3121;SDS011;1571;52.524;14.104;2023-08-24T06:00:16;6.90;;;5.83;;
3121;SDS011;1571;52.524;14.104;2023-08-24T06:02:45;5.63;;;5.03;;
3121;SDS011;1571;52.524;14.104;2023-08-24T06:05:13;5.40;;;5.00;;
3121;SDS011;1571;52.524;14.104;2023-08-24T06:07:44;5.23;;;4.83;;
3121;SDS011;1571;52.524;14.104;2023-08-24T06:10:12;5.57;;;5.17;;
3121;SDS011;1571;52.524;14.104;2023-08-24T06:12:41;4.70;;;4.40;;
3121;SDS011;1571;52.524;14.104;2023-08-24T06:15:09;5.30;;;4.90;;
3121;SDS011;1571;52.524;14.104;2023-08-24T06:17:41;4.70;;;3.87;;
3121;SDS011;1571;52.524;14.104;2023-08-24T06:20:10;4.23;;;3.93;;
3121;SDS011;1571;52.524;14.104;2023-08-24T06:22:39;6.33;;;3.93;;
3121;SDS011;1571;52.524;14.104;2023-08-24T06:25:08;3.97;;;3.77;;
3121;SDS011;1571;52.524;14.104;2023-08-24T06:27:37;4.93;;;4.27;;
3121;SDS011;1571;52.524;14.104;2023-08-24T06:30:06;3.90;;;3.70;;
3121;SDS011;1571;52.524;14.104;2023-08-24T06:32:35;4.40;;;4.10;;
3121;SDS011;1571;52.524;14.104;2023-08-24T06:35:05;4.57;;;4.23;;
3121;SDS011;1571;52.524;14.104;2023-08-24T06:37:34;3.80;;;3.10;;
3121;SDS011;1571;52.524;14.104;2023-08-24T06:40:02;5.13;;;3.30;;
3121;SDS011;1571;52.524;14.104;2023-08-24T06:42:32;4.00;;;3.70;;
3121;SDS011;1571;52.524;14.104;2023-08-24T06:45:00;3.53;;;3.33;;
3121;SDS011;1571;52.524;14.104;2023-08-24T06:47:28;3.73;;;3.50;;
3121;SDS011;1571;52.524;14.104;2023-08-24T06:49:57;3.70;;;3.30;;
3121;SDS011;1571;52.524;14.104;2023-08-24T06:52:26;4.87;;;3.53;;
3121;SDS011;1571;52.524;14.104;2023-08-24T06:54:55;3.93;;;2.67;;
3121;SDS011;1571;52.524;14.104;2023-08-24T06:57:23;3.67;;;2.93;;
3121;SDS011;1571;52.524;14.104;2023-08-24T06:59:51;3.77;;;3.47;;
3121;SDS011;1571;52.524;14.104;2023-08-24T07:02:19;3.80;;;3.00;;
3121;SDS011;1571;52.524;14.104;2023-08-24T07:04:48;3.70;;;3.50;;
3121;SDS011;1571;52.524;14.104;2023-08-24T07:07:16;3.10;;;2.90;;
3121;SDS011;1571;52.524;14.104;2023-08-24T07:09:46;3.50;;;3.20;;
3121;SDS011;1571;52.524;14.104;2023-08-24T07:12:14;2.43;;;2.33;;
3121;SDS011;1571;52.524;14.104;2023-08-24T07:14:42;4.73;;;2.30;;
3121;SDS011;1571;52.524;14.104;2023-08-24T07:17:11;3.30;;;2.50;;
3121;SDS011;1571;52.524;14.104;2023-08-24T07:19:39;3.00;;;2.80;;
3121;SDS011;1571;52.524;14.104;2023-08-24T07:22:07;2.93;;;2.73;;
3121;SDS011;1571;52.524;14.104;2023-08-24T07:24:36;3.97;;;2.50;;
3121;SDS011;1571;52.524;14.104;2023-08-24T07:27:13;2.73;;;2.63;;
3121;SDS011;1571;52.524;14.104;2023-08-24T07:29:41;6.00;;;2.43;;
3121;SDS011;1571;52.524;14.104;2023-08-24T07:32:09;2.23;;;2.13;;
3121;SDS011;1571;52.524;14.104;2023-08-24T07:34:38;2.07;;;1.97;;
3121;SDS011;1571;52.524;14.104;2023-08-24T07:37:06;1.90;;;1.80;;
3121;SDS011;1571;52.524;14.104;2023-08-24T07:39:34;2.10;;;2.00;;
3121;SDS011;1571;52.524;14.104;2023-08-24T07:42:03;2.73;;;2.27;;
3121;SDS011;1571;52.524;14.104;2023-08-24T07:44:32;2.83;;;2.63;;
3121;SDS011;1571;52.524;14.104;2023-08-24T07:47:00;2.60;;;2.50;;
3121;SDS011;1571;52.524;14.104;2023-08-24T07:49:29;3.30;;;3.00;;
3121;SDS011;1571;52.524;14.104;2023-08-24T07:51:57;2.77;;;2.60;;
3121;SDS011;1571;52.524;14.104;2023-08-24T07:54:26;3.83;;;2.47;;
3121;SDS011;1571;52.524;14.104;2023-08-24T07:56:54;2.30;;;2.10;;
3121;SDS011;1571;52.524;14.104;2023-08-24T07:59:22;2.53;;;2.33;;
3121;SDS011;1571;52.524;14.104;2023-08-24T08:01:52;3.20;;;3.00;;
3121;SDS011;1571;52.524;14.104;2023-08-24T08:04:21;3.33;;;3.10;;
3121;SDS011;1571;52.524;14.104;2023-08-24T08:06:49;2.50;;;2.30;;
3121;SDS011;1571;52.524;14.104;2023-08-24T08:09:18;2.90;;;2.67;;
3121;SDS011;1571;52.524;14.104;2023-08-24T08:11:46;5.07;;;2.80;;
3121;SDS011;1571;52.524;14.104;2023-08-24T08:14:14;2.60;;;2.37;;
3121;SDS011;1571;52.524;14.104;2023-08-24T08:16:42;3.20;;;2.20;;
3121;SDS011;1571;52.524;14.104;2023-08-24T08:19:12;2.90;;;2.47;;
3121;SDS011;1571;52.524;14.104;2023-08-24T08:21:40;3.03;;;2.73;;
3121;SDS011;1571;52.524;14.104;2023-08-24T08:24:08;2.40;;;2.30;;
3121;SDS011;1571;52.524;14.104;2023-08-24T08:26:51;2.00;;;1.90;;
3121;SDS011;1571;52.524;14.104;2023-08-24T08:29:19;2.60;;;2.43;;
3121;SDS011;1571;52.524;14.104;2023-08-24T08:31:47;2.87;;;2.30;;
3121;SDS011;1571;52.524;14.104;2023-08-24T08:34:17;3.37;;;1.90;;
3121;SDS011;1571;52.524;14.104;2023-08-24T08:36:45;2.60;;;2.20;;
3121;SDS011;1571;52.524;14.104;2023-08-24T08:39:13;2.57;;;2.00;;
3121;SDS011;1571;52.524;14.104;2023-08-24T08:41:42;2.87;;;1.70;;
3121;SDS011;1571;52.524;14.104;2023-08-24T08:44:12;3.23;;;2.20;;
3121;SDS011;1571;52.524;14.104;2023-08-24T08:46:42;1.70;;;1.60;;
3121;SDS011;1571;52.524;14.104;2023-08-24T08:49:13;2.30;;;1.73;;
3121;SDS011;1571;52.524;14.104;2023-08-24T08:51:44;2.17;;;2.00;;
3121;SDS011;1571;52.524;14.104;2023-08-24T08:54:13;2.40;;;1.97;;
3121;SDS011;1571;52.524;14.104;2023-08-24T08:56:41;3.03;;;1.90;;
3121;SDS011;1571;52.524;14.104;2023-08-24T08:59:09;1.83;;;1.60;;
3121;SDS011;1571;52.524;14.104;2023-08-24T09:01:41;2.70;;;1.63;;
3121;SDS011;1571;52.524;14.104;2023-08-24T09:04:12;9.43;;;1.87;;
3121;SDS011;1571;52.524;14.104;2023-08-24T09:06:40;3.07;;;2.13;;
3121;SDS011;1571;52.524;14.104;2023-08-24T09:09:10;2.87;;;2.10;;
3121;SDS011;1571;52.524;14.104;2023-08-24T09:11:40;2.17;;;2.07;;
3121;SDS011;1571;52.524;14.104;2023-08-24T09:14:09;2.73;;;2.07;;
3121;SDS011;1571;52.524;14.104;2023-08-24T09:16:37;2.07;;;1.97;;
3121;SDS011;1571;52.524;14.104;2023-08-24T09:19:06;3.20;;;2.10;;
3121;SDS011;1571;52.524;14.104;2023-08-24T09:21:36;2.00;;;1.80;;
3121;SDS011;1571;52.524;14.104;2023-08-24T09:24:05;3.80;;;1.80;;
3121;SDS011;1571;52.524;14.104;2023-08-24T09:26:35;2.07;;;1.77;;
3121;SDS011;1571;52.524;14.104;2023-08-24T09:29:12;2.50;;;1.50;;
3121;SDS011;1571;52.524;14.104;2023-08-24T09:31:41;2.43;;;1.83;;
3121;SDS011;1571;52.524;14.104;2023-08-24T09:34:11;3.43;;;1.87;;
3121;SDS011;1571;52.524;14.104;2023-08-24T09:36:40;1.53;;;1.43;;
3121;SDS011;1571;52.524;14.104;2023-08-24T09:39:08;1.47;;;1.30;;
3121;SDS011;1571;52.524;14.104;2023-08-24T09:41:38;6.50;;;1.30;;
3121;SDS011;1571;52.524;14.104;2023-08-24T09:44:07;2.13;;;1.73;;
3121;SDS011;1571;52.524;14.104;2023-08-24T09:46:36;1.53;;;1.43;;
3121;SDS011;1571;52.524;14.104;2023-08-24T09:49:05;4.17;;;1.63;;
3121;SDS011;1571;52.524;14.104;2023-08-24T09:51:34;4.20;;;1.70;;
3121;SDS011;1571;52.524;14.104;2023-08-24T09:54:04;2.30;;;1.83;;
3121;SDS011;1571;52.524;14.104;2023-08-24T09:56:36;1.63;;;1.40;;
3121;SDS011;1571;52.524;14.104;2023-08-24T09:59:10;3.17;;;1.63;;
3121;SDS011;1571;52.524;14.104;2023-08-24T10:01:41;5.10;;;1.40;;
3121;SDS011;1571;52.524;14.104;2023-08-24T10:04:10;1.90;;;1.80;;
3121;SDS011;1571;52.524;14.104;2023-08-24T10:06:40;1.50;;;1.40;;
3121;SDS011;1571;52.524;14.104;2023-08-24T10:09:11;2.33;;;2.03;;
3121;SDS011;1571;52.524;14.104;2023-08-24T10:11:46;2.37;;;1.60;;
3121;SDS011;1571;52.524;14.104;2023-08-24T10:14:24;3.73;;;2.10;;
3121;SDS011;1571;52.524;14.104;2023-08-24T10:16:57;2.10;;;2.00;;
3121;SDS011;1571;52.524;14.104;2023-08-24T10:19:26;3.83;;;2.03;;
3121;SDS011;1571;52.524;14.104;2023-08-24T10:21:55;1.70;;;1.60;;
3121;SDS011;1571;52.524;14.104;2023-08-24T10:24:28;2.20;;;1.73;;
3121;SDS011;1571;52.524;14.104;2023-08-24T10:27:01;1.80;;;1.70;;
3121;SDS011;1571;52.524;14.104;2023-08-24T10:29:32;2.03;;;1.93;;
3121;SDS011;1571;52.524;14.104;2023-08-24T10:32:00;1.63;;;1.53;;
3121;SDS011;1571;52.524;14.104;2023-08-24T10:34:30;2.67;;;1.60;;
3121;SDS011;1571;52.524;14.104;2023-08-24T10:37:06;1.73;;;1.60;;
3121;SDS011;1571;52.524;14.104;2023-08-24T10:39:35;1.93;;;1.23;;
3121;SDS011;1571;52.524;14.104;2023-08-24T10:42:05;1.50;;;1.33;;
3121;SDS011;1571;52.524;14.104;2023-08-24T10:44:43;3.63;;;1.20;;
3121;SDS011;1571;52.524;14.104;2023-08-24T10:47:13;1.73;;;1.47;;
3121;SDS011;1571;52.524;14.104;2023-08-24T10:49:42;1.77;;;1.67;;
3121;SDS011;1571;52.524;14.104;2023-08-24T10:52:16;1.40;;;1.30;;
3121;SDS011;1571;52.524;14.104;2023-08-24T10:54:45;1.37;;;1.20;;
3121;SDS011;1571;52.524;14.104;2023-08-24T10:57:19;1.40;;;1.30;;
3121;SDS011;1571;52.524;14.104;2023-08-24T10:59:59;1.50;;;1.33;;
3121;SDS011;1571;52.524;14.104;2023-08-24T11:02:43;3.13;;;1.57;;
3121;SDS011;1571;52.524;14.104;2023-08-24T11:05:14;2.13;;;1.27;;
3121;SDS011;1571;52.524;14.104;2023-08-24T11:07:50;1.70;;;1.03;;
3121;SDS011;1571;52.524;14.104;2023-08-24T11:10:21;1.93;;;1.33;;
3121;SDS011;1571;52.524;14.104;2023-08-24T11:13:09;2.83;;;2.47;;
3121;SDS011;1571;52.524;14.104;2023-08-24T11:15:43;1.57;;;1.47;;
3121;SDS011;1571;52.524;14.104;2023-08-24T11:18:22;2.30;;;1.10;;
3121;SDS011;1571;52.524;14.104;2023-08-24T11:20:52;1.80;;;1.17;;
3121;SDS011;1571;52.524;14.104;2023-08-24T11:23:22;1.90;;;1.80;;
3121;SDS011;1571;52.524;14.104;2023-08-24T11:25:52;1.67;;;1.57;;
3121;SDS011;1571;52.524;14.104;2023-08-24T11:28:23;1.30;;;1.20;;
3121;SDS011;1571;52.524;14.104;2023-08-24T11:30:54;1.30;;;1.20;;
3121;SDS011;1571;52.524;14.104;2023-08-24T11:33:26;0.90;;;0.90;;
3121;SDS011;1571;52.524;14.104;2023-08-24T11:35:56;2.33;;;1.50;;
3121;SDS011;1571;52.524;14.104;2023-08-24T11:38:25;1.17;;;1.17;;
3121;SDS011;1571;52.524;14.104;2023-08-24T11:40:53;1.40;;;1.30;;
3121;SDS011;1571;52.524;14.104;2023-08-24T11:43:24;1.00;;;1.00;;
3121;SDS011;1571;52.524;14.104;2023-08-24T11:45:55;1.33;;;1.00;;
3121;SDS011;1571;52.524;14.104;2023-08-24T11:48:23;1.37;;;1.27;;
3121;SDS011;1571;52.524;14.104;2023-08-24T11:50:52;2.40;;;1.47;;
3121;SDS011;1571;52.524;14.104;2023-08-24T11:53:21;2.07;;;1.10;;
3121;SDS011;1571;52.524;14.104;2023-08-24T11:55:52;1.30;;;1.17;;
3121;SDS011;1571;52.524;14.104;2023-08-24T11:58:31;1.30;;;1.20;;
3121;SDS011;1571;52.524;14.104;2023-08-24T12:01:01;1.47;;;1.10;;
3121;SDS011;1571;52.524;14.104;2023-08-24T12:03:30;3.60;;;1.27;;
3121;SDS011;1571;52.524;14.104;2023-08-24T12:05:59;1.37;;;0.90;;
3121;SDS011;1571;52.524;14.104;2023-08-24T12:08:28;1.70;;;1.60;;
3121;SDS011;1571;52.524;14.104;2023-08-24T12:10:56;1.30;;;1.20;;
3121;SDS011;1571;52.524;14.104;2023-08-24T12:13:25;2.03;;;1.30;;
3121;SDS011;1571;52.524;14.104;2023-08-24T12:15:53;1.87;;;1.30;;
3121;SDS011;1571;52.524;14.104;2023-08-24T12:18:24;3.13;;;1.60;;
3121;SDS011;1571;52.524;14.104;2023-08-24T12:20:52;1.50;;;1.40;;
3121;SDS011;1571;52.524;14.104;2023-08-24T12:23:20;1.73;;;1.63;;
3121;SDS011;1571;52.524;14.104;2023-08-24T12:25:54;2.20;;;1.30;;
3121;SDS011;1571;52.524;14.104;2023-08-24T12:28:23;1.43;;;1.20;;
3121;SDS011;1571;52.524;14.104;2023-08-24T12:30:51;5.83;;;1.30;;
3121;SDS011;1571;52.524;14.104;2023-08-24T12:33:21;2.50;;;1.60;;
3121;SDS011;1571;52.524;14.104;2023-08-24T12:35:52;1.20;;;1.10;;
3121;SDS011;1571;52.524;14.104;2023-08-24T12:38:20;1.47;;;1.23;;
3121;SDS011;1571;52.524;14.104;2023-08-24T12:40:49;2.37;;;2.13;;
3121;SDS011;1571;52.524;14.104;2023-08-24T12:43:17;2.77;;;1.53;;
3121;SDS011;1571;52.524;14.104;2023-08-24T12:45:45;4.10;;;1.73;;
3121;SDS011;1571;52.524;14.104;2023-08-24T12:48:14;1.73;;;1.63;;
3121;SDS011;1571;52.524;14.104;2023-08-24T12:50:42;1.60;;;1.50;;
3121;SDS011;1571;52.524;14.104;2023-08-24T12:53:11;2.23;;;1.80;;
3121;SDS011;1571;52.524;14.104;2023-08-24T12:55:40;2.50;;;1.30;;
3121;SDS011;1571;52.524;14.104;2023-08-24T12:58:08;2.00;;;1.50;;
3121;SDS011;1571;52.524;14.104;2023-08-24T13:00:36;7.37;;;2.93;;
3121;SDS011;1571;52.524;14.104;2023-08-24T13:03:05;2.83;;;2.00;;
3121;SDS011;1571;52.524;14.104;2023-08-24T13:05:33;3.73;;;2.00;;
3121;SDS011;1571;52.524;14.104;2023-08-24T13:08:02;4.00;;;1.83;;
3121;SDS011;1571;52.524;14.104;2023-08-24T13:10:31;1.60;;;1.47;;
3121;SDS011;1571;52.524;14.104;2023-08-24T13:13:01;1.97;;;1.87;;
3121;SDS011;1571;52.524;14.104;2023-08-24T13:15:30;2.17;;;2.07;;
3121;SDS011;1571;52.524;14.104;2023-08-24T13:17:58;2.03;;;1.93;;
3121;SDS011;1571;52.524;14.104;2023-08-24T13:20:26;4.73;;;2.17;;
3121;SDS011;1571;52.524;14.104;2023-08-24T13:22:55;2.73;;;1.63;;
3121;SDS011;1571;52.524;14.104;2023-08-24T13:25:23;2.17;;;2.07;;
3121;SDS011;1571;52.524;14.104;2023-08-24T13:27:52;2.43;;;1.90;;
3121;SDS011;1571;52.524;14.104;2023-08-24T13:30:23;2.03;;;1.40;;
3121;SDS011;1571;52.524;14.104;2023-08-24T13:32:51;2.23;;;1.53;;
3121;SDS011;1571;52.524;14.104;2023-08-24T13:35:20;2.17;;;2.00;;
3121;SDS011;1571;52.524;14.104;2023-08-24T13:37:49;2.53;;;1.47;;
3121;SDS011;1571;52.524;14.104;2023-08-24T13:40:18;2.73;;;1.70;;
3121;SDS011;1571;52.524;14.104;2023-08-24T13:42:46;1.30;;;1.30;;
3121;SDS011;1571;52.524;14.104;2023-08-24T13:45:15;2.10;;;2.00;;
3121;SDS011;1571;52.524;14.104;2023-08-24T13:47:46;3.17;;;1.50;;
3121;SDS011;1571;52.524;14.104;2023-08-24T13:50:14;1.30;;;1.30;;
3121;SDS011;1571;52.524;14.104;2023-08-24T13:52:42;2.83;;;2.60;;
3121;SDS011;1571;52.524;14.104;2023-08-24T13:55:11;1.40;;;1.30;;
3121;SDS011;1571;52.524;14.104;2023-08-24T13:57:39;1.30;;;1.30;;
3121;SDS011;1571;52.524;14.104;2023-08-24T14:00:08;2.20;;;2.00;;
3121;SDS011;1571;52.524;14.104;2023-08-24T14:02:39;2.50;;;2.10;;
3121;SDS011;1571;52.524;14.104;2023-08-24T14:05:09;1.97;;;1.73;;
3121;SDS011;1571;52.524;14.104;2023-08-24T14:07:37;2.00;;;1.77;;
3121;SDS011;1571;52.524;14.104;2023-08-24T14:10:06;1.80;;;1.70;;
3121;SDS011;1571;52.524;14.104;2023-08-24T14:12:35;1.70;;;1.60;;
3121;SDS011;1571;52.524;14.104;2023-08-24T14:15:04;3.00;;;1.90;;
3121;SDS011;1571;52.524;14.104;2023-08-24T14:17:33;6.87;;;2.80;;
3121;SDS011;1571;52.524;14.104;2023-08-24T14:20:03;1.70;;;1.60;;
3121;SDS011;1571;52.524;14.104;2023-08-24T14:22:32;1.90;;;1.70;;
3121;SDS011;1571;52.524;14.104;2023-08-24T14:25:01;1.80;;;1.70;;
3121;SDS011;1571;52.524;14.104;2023-08-24T14:27:31;1.57;;;1.47;;
3121;SDS011;1571;52.524;14.104;2023-08-24T14:29:59;3.73;;;2.07;;
3121;SDS011;1571;52.524;14.104;2023-08-24T14:32:27;3.60;;;2.30;;
3121;SDS011;1571;52.524;14.104;2023-08-24T14:34:55;3.70;;;2.43;;
3121;SDS011;1571;52.524;14.104;2023-08-24T14:37:25;4.00;;;2.03;;
3121;SDS011;1571;52.524;14.104;2023-08-24T14:39:53;2.30;;;2.10;;
3121;SDS011;1571;52.524;14.104;2023-08-24T14:42:22;2.30;;;1.80;;
3121;SDS011;1571;52.524;14.104;2023-08-24T14:44:50;2.40;;;2.20;;
3121;SDS011;1571;52.524;14.104;2023-08-24T14:47:18;2.20;;;2.00;;
3121;SDS011;1571;52.524;14.104;2023-08-24T14:49:47;1.90;;;1.80;;
3121;SDS011;1571;52.524;14.104;2023-08-24T14:52:16;2.00;;;1.70;;
3121;SDS011;1571;52.524;14.104;2023-08-24T14:54:45;3.87;;;2.20;;
3121;SDS011;1571;52.524;14.104;2023-08-24T14:57:13;1.73;;;1.50;;
3121;SDS011;1571;52.524;14.104;2023-08-24T14:59:41;1.90;;;1.80;;
3121;SDS011;1571;52.524;14.104;2023-08-24T15:02:10;2.50;;;2.30;;
3121;SDS011;1571;52.524;14.104;2023-08-24T15:04:38;2.60;;;1.60;;
3121;SDS011;1571;52.524;14.104;2023-08-24T15:07:06;2.10;;;1.90;;
3121;SDS011;1571;52.524;14.104;2023-08-24T15:09:34;2.50;;;1.80;;
3121;SDS011;1571;52.524;14.104;2023-08-24T15:12:05;2.83;;;1.73;;
3121;SDS011;1571;52.524;14.104;2023-08-24T15:14:33;2.00;;;1.67;;